< < Back
Terminal Aerodrome Forecast


Current Version              Previous Versions:   1  2  3  4  5  6  7  8  9  

Terminal Aerodrome Forecast

624
FTUS42 KJAX 242000 AAA
TAFSSI
TAF AMD
KSSI 242038Z 2421/2518 24010G18KT P6SM FEW040
     FM242300 25006KT P6SM SCT250
     FM251300 24008KT P6SM SCT040 SCT250=



Latest METAR

165
SAUS70 KWBC 251000 RRF
MTRSSI
METAR KSSI 250953Z AUTO 25006KT 10SM CLR 25/23 A3002 RMK AO2 SLP165
T02500233


USA.gov is the U.S. government's official web portal to all federal, state and local government web resources and services.